ADDS METAR Data INFO
IDs: Format: Raw Decoded Include TAF

Data at: 0802 UTC 23 Jul 2018

KMCE 230753Z AUTO 32006KT 10SM CLR 25/14 A3000 RMK AO2 SLP156 T02500139 403610206
KMCE 230653Z AUTO 33009KT 10SM CLR 26/14 A3000 RMK AO2 SLP156 T02610139
KMCE 230553Z AUTO 32007KT 10SM CLR 27/15 A3001 RMK AO2 SLP159 T02720150 10361 20272 52018
KMCE 230453Z AUTO 35011KT 10SM CLR 29/16 A2999 RMK AO2 SLP153 T02890156
KMCE 230353Z AUTO 33012KT 10SM CLR 31/15 A2997 RMK AO2 SLP145 T03060150
KMCE 230253Z AUTO 33011KT 10SM CLR 33/16 A2995 RMK AO2 SLP140 T03280156 53003
KMCE 230153Z AUTO 33008KT 10SM CLR 35/17 A2994 RMK AO2 SLP136 T03500167
KMCE 230053Z AUTO 34011KT 10SM CLR 36/17 A2993 RMK AO2 SLP133 T03560167
KMCE 222353Z AUTO 33008KT 10SM CLR 36/17 A2994 RMK AO2 SLP137 T03560167 10361 20300 56015
KMCE 222253Z AUTO 31009KT 10SM CLR 36/16 A2995 RMK AO2 SLP139 T03560156
KMCE 222153Z AUTO 31010KT 10SM CLR 35/16 A2997 RMK AO2 SLP145 T03500156
KMCE 222053Z AUTO 34010KT 10SM CLR 34/14 A2999 RMK AO2 SLP153 T03390139 58011
KMCE 221953Z AUTO 30009KT 10SM CLR 33/12 A3001 RMK AO2 SLP159 T03330122
KMCE 221853Z AUTO 30009KT 10SM CLR 32/12 A3002 RMK AO2 SLP163 T03170122
KMCE 221753Z AUTO 30007KT 10SM CLR 30/12 A3002 RMK AO2 SLP163 T03000117 10300 20206 50002
KMCE 221653Z AUTO 34009KT 10SM CLR 28/09 A3002 RMK AO2 SLP164 T02830094
KMCE 221553Z AUTO 32007KT 10SM CLR 26/12 A3002 RMK AO2 SLP164 T02610117
KMCE 221453Z AUTO 33008KT 10SM CLR 23/12 A3001 RMK AO2 SLP161 T02330117 51013
KMCE 221353Z AUTO 31006KT 10SM CLR 21/11 A3000 RMK AO2 SLP158 T02110111
KMCE 221253Z AUTO 29004KT 10SM CLR 22/09 A2999 RMK AO2 SLP152 T02170094
KMCE 221153Z AUTO 31005KT 10SM CLR 22/09 A2998 RMK AO2 SLP148 T02170094 10267 20206 52005
KMCE 221053Z AUTO 28003KT 10SM CLR 21/12 A2997 RMK AO2 SLP146 T02060117
KMCE 220953Z AUTO 26005KT 10SM CLR 22/11 A2997 RMK AO2 SLP145 T02170111
KMCE 220853Z AUTO 30007KT 10SM CLR 24/11 A2996 RMK AO2 SLP143 T02390106 51004
KMCE 220753Z AUTO 26006KT 10SM CLR 23/13 A2996 RMK AO2 SLP142 T02330128 403560222
KMCE 220653Z AUTO 32007KT 10SM CLR 26/11 A2995 RMK AO2 SLP141 T02610106
KMCE 220553Z AUTO 29004KT 10SM CLR 27/14 A2995 RMK AO2 SLP139 T02670139 10350 20267 51022
KMCE 220453Z AUTO 32009KT 10SM CLR 28/14 A2993 RMK AO2 SLP134 T02830139
KMCE 220353Z AUTO 33010KT 10SM CLR 30/14 A2991 RMK AO2 SLP127 T03000144
KMCE 220253Z AUTO 33008KT 10SM CLR 32/16 A2988 RMK AO2 SLP116 T03170156 53006
KMCE 220153Z AUTO 33013KT 10SM CLR 33/17 A2987 RMK AO2 SLP113 T03330172
KMCE 220053Z AUTO 34011KT 10SM CLR 35/18 A2987 RMK AO2 SLP112 T03500183
KMCE 212353Z AUTO 35011KT 10SM CLR 35/19 A2986 RMK AO2 SLP111 T03500189 10356 20294 56014
KMCE 212253Z AUTO 33008KT 10SM CLR 35/18 A2987 RMK AO2 SLP114 T03500183
KMCE 212153Z AUTO 33006KT 10SM CLR 34/17 A2989 RMK AO2 SLP120 T03390172
KMCE 212053Z AUTO 34008KT 10SM CLR 34/17 A2990 RMK AO2 SLP124 T03390167 58012